Time;durP1;ratioP1;P1;durP2;ratioP2;P2;SDS_P1;SDS_P2;PMS_P1;PMS_P2;Temp;Humidity;BMP_temperature;BMP_pressure;BME280_temperature;BME280_humidity;BME280_pressure;Samples;Min_cycle;Max_cycle;Signal;HPM_P1;HPM_P2
2022/01/26 00:05:46;;;;;;;99.03;47.15;;;3.10;99.90;;;;;;5091832;28;20064;-82
2022/01/26 00:06:03;;;;;;;99.47;42.53;;;3.10;99.90;;;;;;5067846;28;20043;-82
2022/01/26 00:08:28;;;;;;;106.50;49.55;;;3.10;99.90;;;;;;5090507;28;20044;-81
2022/01/26 00:10:54;;;;;;;100.20;49.08;;;3.20;99.90;;;;;;5066921;28;20051;-80
2022/01/26 00:13:20;;;;;;;109.05;48.63;;;3.10;99.90;;;;;;5087040;28;20093;-80
2022/01/26 00:15:45;;;;;;;103.25;50.13;;;3.10;99.90;;;;;;5074159;28;20040;-82
2022/01/26 00:18:11;;;;;;;98.82;50.47;;;3.10;99.90;;;;;;5090802;28;20143;-81
2022/01/26 00:20:43;;;;;;;111.93;50.83;;;3.10;99.90;;;;;;5099654;28;20390;-80
2022/01/26 00:23:34;;;;;;;114.82;48.72;;;3.00;99.90;;;;;;5096490;28;20055;-82
2022/01/26 00:38:51;;;;;;;130.57;52.58;;;3.10;99.90;;;;;;5086633;28;20490;-83
2022/01/26 00:41:22;;;;;;;106.55;46.05;;;2.90;99.90;;;;;;5085761;28;20051;-81
2022/01/26 00:43:53;;;;;;;102.38;48.55;;;3.00;99.90;;;;;;5085134;28;20086;-81
2022/01/26 00:46:20;;;;;;;111.75;52.70;;;3.00;99.90;;;;;;5067987;28;20071;-84
2022/01/26 00:48:46;;;;;;;96.57;45.47;;;2.90;99.90;;;;;;5068979;28;20562;-81
2022/01/26 00:51:19;;;;;;;116.75;50.97;;;3.00;99.90;;;;;;5068379;28;20066;-81
2022/01/26 00:53:49;;;;;;;108.53;47.72;;;3.00;99.90;;;;;;5074097;28;20060;-81
2022/01/26 00:56:14;;;;;;;;;;;2.90;99.90;;;;;;5065860;28;20072;-81
2022/01/26 00:58:41;;;;;;;106.78;46.78;;;2.90;99.90;;;;;;5080568;28;19958;-80
2022/01/26 01:01:07;;;;;;;132.32;52.80;;;3.00;99.90;;;;;;5085941;28;20561;-81
2022/01/26 01:03:36;;;;;;;111.63;52.30;;;3.00;99.90;;;;;;5082608;28;20669;-81
2022/01/26 01:06:13;;;;;;;111.35;46.40;;;2.90;99.90;;;;;;5071079;28;20480;-80
2022/01/26 01:08:40;;;;;;;109.15;50.78;;;2.90;99.90;;;;;;5075269;28;20044;-80
2022/01/26 01:11:08;;;;;;;104.03;46.22;;;2.90;99.90;;;;;;5073992;28;20048;-78
2022/01/26 01:13:36;;;;;;;103.15;45.38;;;3.00;99.90;;;;;;5075197;28;20085;-80
2022/01/26 01:16:05;;;;;;;100.78;45.10;;;3.00;99.90;;;;;;5076025;28;20467;-80
2022/01/26 01:18:43;;;;;;;112.60;50.70;;;2.90;99.90;;;;;;5069890;28;20044;-78
2022/01/26 01:24:15;;;;;;;119.90;52.13;;;3.00;99.90;;;;;;5070220;28;20056;-80
2022/01/26 01:34:06;;;;;;;112.40;52.25;;;2.90;99.90;;;;;;5076115;28;20063;-80
2022/01/26 01:36:33;;;;;;;118.32;50.97;;;2.80;99.90;;;;;;5070404;28;20044;-81
2022/01/26 01:38:59;;;;;;;111.68;54.55;;;2.90;99.90;;;;;;5074949;28;20032;-81
2022/01/26 01:41:24;;;;;;;121.57;51.92;;;2.90;99.90;;;;;;5071818;28;20833;-80
2022/01/26 01:43:50;;;;;;;108.30;51.50;;;2.90;99.90;;;;;;5072908;28;20068;-82
2022/01/26 01:46:16;;;;;;;105.50;50.53;;;2.80;99.90;;;;;;5079792;28;20047;-80
2022/01/26 01:48:42;;;;;;;117.40;49.55;;;2.80;99.90;;;;;;5096217;28;20130;-81
2022/01/26 01:51:11;;;;;;;105.93;46.22;;;2.90;99.90;;;;;;5100456;28;20646;-80
2022/01/26 01:53:42;;;;;;;108.45;48.03;;;2.80;99.90;;;;;;5076072;28;20040;-80
2022/01/26 01:56:13;;;;;;;99.07;45.10;;;2.80;99.90;;;;;;5089994;28;20063;-80
2022/01/26 01:58:39;;;;;;;110.45;47.53;;;2.90;99.90;;;;;;5096216;28;20097;-80
2022/01/26 02:01:06;;;;;;;99.38;44.38;;;2.70;99.90;;;;;;5104165;27;20493;-80
2022/01/26 02:03:32;;;;;;;115.75;50.33;;;2.80;99.90;;;;;;5093822;28;20059;-82
2022/01/26 02:05:58;;;;;;;93.43;45.30;;;2.80;99.90;;;;;;5072597;28;20036;-82
2022/01/26 02:08:24;;;;;;;110.32;49.35;;;2.90;99.90;;;;;;5089848;28;20046;-82
2022/01/26 02:10:51;;;;;;;95.55;44.05;;;2.80;99.90;;;;;;5089737;28;20371;-82
2022/01/26 02:13:24;;;;;;;100.03;46.50;;;2.80;99.90;;;;;;5088240;28;20157;-81
2022/01/26 02:59:36;;;;;;;90.70;42.65;;;2.90;99.90;;;;;;5072266;28;20474;-79
2022/01/26 03:02:11;;;;;;;115.65;46.60;;;2.90;99.90;;;;;;5086141;28;20082;-81
2022/01/26 03:09:34;;;;;;;79.18;39.53;;;2.90;99.90;;;;;;5087420;28;20044;-79
2022/01/26 03:12:01;;;;;;;90.00;41.15;;;2.90;99.90;;;;;;5072301;28;20055;-81
2022/01/26 03:17:08;;;;;;;81.65;40.53;;;2.90;99.90;;;;;;5092186;28;20173;-81
2022/01/26 03:19:44;;;;;;;85.88;44.53;;;2.90;99.90;;;;;;5072077;28;20058;-81
2022/01/26 03:30:19;;;;;;;83.35;41.83;;;2.90;99.90;;;;;;5088667;28;20052;-81
2022/01/26 03:33:07;;;;;;;78.25;40.72;;;3.00;99.90;;;;;;5089767;28;20050;-80
2022/01/26 03:35:49;;;;;;;74.90;39.45;;;2.80;99.90;;;;;;5087798;28;20471;-80
2022/01/26 03:38:26;;;;;;;73.15;40.67;;;2.90;99.90;;;;;;5089611;28;20036;-82
2022/01/26 03:41:12;;;;;;;84.63;41.45;;;2.90;99.90;;;;;;5091499;28;20047;-81
2022/01/26 03:43:38;;;;;;;80.75;41.28;;;2.90;99.90;;;;;;5070804;28;20156;-81
2022/01/26 03:46:03;;;;;;;75.13;40.28;;;2.90;99.90;;;;;;5079081;28;20451;-80
2022/01/26 03:48:29;;;;;;;87.50;42.58;;;2.90;99.90;;;;;;5091213;28;20047;-80
2022/01/26 03:50:55;;;;;;;76.07;37.38;;;2.90;99.90;;;;;;5069612;28;20051;-81
2022/01/26 03:53:20;;;;;;;71.03;39.17;;;2.90;99.90;;;;;;5070419;28;20051;-80
2022/01/26 03:55:46;;;;;;;81.90;40.65;;;2.90;99.90;;;;;;5082255;28;20516;-81
2022/01/26 03:58:11;;;;;;;75.93;43.25;;;2.90;99.90;;;;;;5090177;28;20039;-81
2022/01/26 04:00:37;;;;;;;73.45;37.97;;;2.90;99.90;;;;;;5091371;28;20035;-80
2022/01/26 04:03:03;;;;;;;82.50;40.65;;;2.90;99.90;;;;;;5089951;28;20064;-79
2022/01/26 04:05:29;;;;;;;68.07;34.15;;;2.80;99.90;;;;;;5089931;28;20035;-79
2022/01/26 04:08:01;;;;;;;73.00;38.58;;;2.80;99.90;;;;;;5088040;28;20485;-80
2022/01/26 04:11:15;;;;;;;73.45;37.22;;;2.80;99.90;;;;;;5088551;28;20371;-80
2022/01/26 04:13:18;;;;;;;76.80;38.80;;;2.80;99.90;;;;;;5083217;28;20044;-82
2022/01/26 04:15:44;;;;;;;80.30;40.47;;;2.80;99.90;;;;;;5093430;28;20036;-81
2022/01/26 04:18:15;;;;;;;83.90;38.00;;;2.90;99.90;;;;;;5087874;28;20032;-80
2022/01/26 04:20:45;;;;;;;77.00;38.72;;;2.80;99.90;;;;;;5086544;28;20051;-80
2022/01/26 04:25:37;;;;;;;75.57;39.38;;;2.80;99.90;;;;;;5086042;28;20048;-82
2022/01/26 04:28:07;;;;;;;73.60;37.15;;;2.90;99.90;;;;;;5086353;28;20055;-80
2022/01/26 04:30:33;;;;;;;;;;;2.80;99.90;;;;;;5089700;28;20082;-80
2022/01/26 04:33:03;;;;;;;71.68;36.35;;;2.80;99.90;;;;;;5088303;28;19955;-80
2022/01/26 04:35:29;;;;;;;69.60;33.03;;;2.70;99.90;;;;;;5087528;28;20040;-79
2022/01/26 04:40:21;;;;;;;74.07;36.63;;;2.70;99.90;;;;;;5085317;28;20040;-81
2022/01/26 04:42:56;;;;;;;74.28;37.22;;;2.60;99.90;;;;;;5065498;28;20048;-80
2022/01/26 04:45:22;;;;;;;75.22;36.05;;;2.70;99.90;;;;;;5084615;28;20059;-80
2022/01/26 04:47:48;;;;;;;70.63;33.70;;;2.70;99.90;;;;;;5089884;28;20060;-82
2022/01/26 04:50:14;;;;;;;78.70;37.38;;;2.60;99.90;;;;;;5098390;27;20045;-80
2022/01/26 04:52:40;;;;;;;64.85;35.50;;;2.60;99.90;;;;;;5076707;28;20485;-80
2022/01/26 04:55:06;;;;;;;72.65;36.50;;;2.60;99.90;;;;;;5087564;28;20044;-81
2022/01/26 04:57:32;;;;;;;76.05;38.20;;;2.50;99.90;;;;;;5088720;28;20043;-83
2022/01/26 04:59:57;;;;;;;78.43;39.95;;;2.50;99.90;;;;;;5088710;28;20538;-80
2022/01/26 05:02:24;;;;;;;67.45;34.42;;;2.60;99.90;;;;;;5069183;28;20489;-83
2022/01/26 05:04:49;;;;;;;74.32;36.20;;;2.60;99.90;;;;;;5088078;28;20036;-83
2022/01/26 05:07:15;;;;;;;73.63;39.45;;;2.60;99.90;;;;;;5088566;28;20104;-83
2022/01/26 05:09:41;;;;;;;69.47;36.60;;;2.50;99.90;;;;;;5089688;28;20474;-82
2022/01/26 05:12:07;;;;;;;70.63;34.42;;;2.60;99.90;;;;;;5093344;28;20618;-82
2022/01/26 05:14:33;;;;;;;71.85;34.38;;;2.50;99.90;;;;;;5090080;28;20043;-82
2022/01/26 05:16:58;;;;;;;77.80;37.78;;;2.60;99.90;;;;;;5087549;28;20040;-83
2022/01/26 05:19:24;;;;;;;75.63;32.67;;;2.60;99.90;;;;;;5085680;28;20036;-82
2022/01/26 05:21:49;;;;;;;73.10;34.28;;;2.50;99.90;;;;;;5086379;28;20122;-83
2022/01/26 05:24:15;;;;;;;70.82;35.53;;;2.70;99.90;;;;;;5094086;28;20051;-82
2022/01/26 05:26:41;;;;;;;71.32;35.80;;;2.60;99.90;;;;;;5090032;28;20028;-82
2022/01/26 05:29:07;;;;;;;71.32;36.13;;;2.50;99.90;;;;;;5085895;28;20140;-85
2022/01/26 05:31:33;;;;;;;74.88;34.97;;;2.50;99.90;;;;;;5088573;28;20078;-85
2022/01/26 05:33:59;;;;;;;74.60;35.95;;;2.50;99.90;;;;;;5071868;28;20044;-84
2022/01/26 05:36:25;;;;;;;66.63;33.88;;;2.50;99.90;;;;;;5085662;28;20048;-81
2022/01/26 05:38:51;;;;;;;69.43;36.17;;;2.50;99.90;;;;;;5085612;28;20537;-80
2022/01/26 05:41:16;;;;;;;79.70;38.85;;;2.60;99.90;;;;;;5071013;28;20052;-83
2022/01/26 05:43:42;;;;;;;74.15;36.13;;;2.60;99.90;;;;;;5086056;28;20051;-82
2022/01/26 05:46:17;;;;;;;68.20;36.20;;;2.70;99.90;;;;;;5089047;28;20052;-81
2022/01/26 05:48:45;;;;;;;75.03;35.85;;;2.60;99.90;;;;;;5086069;28;20871;-80
2022/01/26 05:51:12;;;;;;;72.63;37.00;;;2.60;99.90;;;;;;5086741;28;20043;-82
2022/01/26 05:53:39;;;;;;;81.07;41.40;;;2.60;99.90;;;;;;5090097;28;20032;-81
2022/01/26 05:56:05;;;;;;;75.55;38.25;;;2.50;99.90;;;;;;5088510;28;20044;-81
2022/01/26 05:58:31;;;;;;;78.78;39.95;;;2.50;99.90;;;;;;5091854;28;20143;-81
2022/01/26 06:01:00;;;;;;;77.30;38.17;;;2.50;99.90;;;;;;5099392;28;20127;-84
2022/01/26 06:03:27;;;;;;;76.10;37.45;;;2.50;99.90;;;;;;5120356;28;20385;-84
2022/01/26 06:05:54;;;;;;;69.82;32.45;;;2.60;99.90;;;;;;5073502;28;20089;-83
2022/01/26 06:08:21;;;;;;;70.32;36.47;;;2.50;99.90;;;;;;5055069;28;20074;-82
2022/01/26 06:10:47;;;;;;;73.53;37.47;;;2.50;99.90;;;;;;5109568;27;20513;-80
2022/01/26 06:13:13;;;;;;;80.20;39.92;;;2.60;99.90;;;;;;5081719;28;20048;-77
2022/01/26 06:15:38;;;;;;;83.22;36.50;;;2.60;99.90;;;;;;5098799;28;20039;-81
2022/01/26 06:18:04;;;;;;;83.07;41.50;;;2.50;99.90;;;;;;5066353;28;20482;-82
2022/01/26 06:20:30;;;;;;;80.05;40.95;;;2.50;99.90;;;;;;5107367;27;20064;-83
2022/01/26 06:22:55;;;;;;;73.72;36.83;;;2.60;99.90;;;;;;5102229;28;20097;-78
2022/01/26 06:25:21;;;;;;;74.72;40.53;;;2.60;99.90;;;;;;5105046;28;20040;-81
2022/01/26 06:27:48;;;;;;;81.55;38.85;;;2.60;99.90;;;;;;5094948;28;20071;-82
2022/01/26 06:30:14;;;;;;;81.97;37.00;;;2.50;99.90;;;;;;5082380;28;20054;-82
2022/01/26 06:32:40;;;;;;;81.60;37.45;;;2.60;99.90;;;;;;5093050;28;20469;-82
2022/01/26 06:35:09;;;;;;;86.47;41.92;;;2.60;99.90;;;;;;5089124;28;20410;-84
2022/01/26 06:37:35;;;;;;;84.20;40.67;;;2.60;99.90;;;;;;5092876;28;20032;-83
2022/01/26 06:40:01;;;;;;;82.53;36.97;;;2.70;99.90;;;;;;5077302;28;20048;-82
2022/01/26 06:42:32;;;;;;;80.70;42.60;;;2.70;99.90;;;;;;5088378;28;20055;-82
2022/01/26 06:45:14;;;;;;;78.88;38.17;;;2.70;99.90;;;;;;5074866;28;20059;-81
2022/01/26 06:50:11;;;;;;;90.25;41.47;;;2.70;99.90;;;;;;5102632;28;20071;-79
2022/01/26 06:52:37;;;;;;;86.38;43.80;;;2.70;99.90;;;;;;5103834;28;20497;-83
2022/01/26 06:55:04;;;;;;;79.38;42.13;;;2.70;99.90;;;;;;5082280;28;20113;-84
2022/01/26 06:57:29;;;;;;;87.22;42.30;;;2.70;99.90;;;;;;5091253;28;20043;-82
2022/01/26 06:59:55;;;;;;;89.43;43.65;;;2.80;99.90;;;;;;5080644;28;21770;-82
2022/01/26 07:02:21;;;;;;;85.45;45.47;;;2.70;99.90;;;;;;5080523;28;20062;-82
2022/01/26 07:04:46;;;;;;;88.80;42.90;;;2.80;99.90;;;;;;5097868;28;20515;-80
2022/01/26 07:07:12;;;;;;;80.38;42.72;;;2.80;99.90;;;;;;5092348;28;20048;-82
2022/01/26 07:09:37;;;;;;;86.68;48.45;;;2.90;99.90;;;;;;5097613;28;20043;-81
2022/01/26 07:12:03;;;;;;;83.35;44.75;;;2.90;99.90;;;;;;5073807;28;20043;-81
2022/01/26 07:22:41;;;;;;;93.32;47.63;;;2.90;99.90;;;;;;5075817;28;20571;-84
2022/01/26 07:25:07;;;;;;;96.07;49.83;;;2.90;99.90;;;;;;5084322;28;20052;-80
2022/01/26 07:27:33;;;;;;;101.55;51.72;;;2.90;99.90;;;;;;5078442;27;20067;-85
2022/01/26 07:29:59;;;;;;;95.93;49.38;;;2.90;99.90;;;;;;5106868;28;20043;-82
2022/01/26 07:32:27;;;;;;;101.22;54.22;;;2.90;99.90;;;;;;5109361;28;20098;-81
2022/01/26 07:34:53;;;;;;;99.95;50.92;;;2.90;99.90;;;;;;5087208;28;20044;-82
2022/01/26 07:37:20;;;;;;;92.93;48.42;;;2.90;99.90;;;;;;5103059;28;20088;-83
2022/01/26 07:40:01;;;;;;;103.97;54.70;;;2.90;99.90;;;;;;5091062;28;20065;-83
2022/01/26 07:42:27;;;;;;;107.70;57.75;;;3.00;99.90;;;;;;5096284;28;20059;-83
2022/01/26 07:44:52;;;;;;;108.00;56.83;;;2.90;99.90;;;;;;5087578;27;20036;-84
2022/01/26 07:47:18;;;;;;;106.10;53.63;;;3.00;99.90;;;;;;5089796;28;20048;-84
2022/01/26 07:49:44;;;;;;;109.60;58.40;;;3.00;99.90;;;;;;5110637;27;20089;-84
2022/01/26 07:52:10;;;;;;;110.65;59.45;;;3.10;99.90;;;;;;5104800;27;20498;-84
2022/01/26 07:54:35;;;;;;;119.22;60.35;;;3.10;99.90;;;;;;5093631;28;20028;-83
2022/01/26 07:57:01;;;;;;;107.70;62.97;;;3.20;99.90;;;;;;5105267;28;20100;-82
2022/01/26 07:59:27;;;;;;;104.57;53.60;;;3.20;99.90;;;;;;5090837;28;20037;-83
2022/01/26 08:01:53;;;;;;;108.78;57.67;;;3.20;99.90;;;;;;5078898;28;20059;-84
2022/01/26 08:04:19;;;;;;;111.13;54.67;;;3.20;99.90;;;;;;5109955;27;20035;-85
2022/01/26 08:06:45;;;;;;;100.68;56.88;;;3.30;99.90;;;;;;5096186;28;20044;-83
2022/01/26 08:09:11;;;;;;;115.18;58.38;;;3.30;99.90;;;;;;5100513;28;20074;-84
2022/01/26 08:11:37;;;;;;;96.40;53.38;;;3.30;99.90;;;;;;5072965;28;20521;-84
2022/01/26 08:14:03;;;;;;;100.55;55.47;;;3.40;99.90;;;;;;5093304;28;20048;-89
2022/01/26 08:16:29;;;;;;;95.90;54.38;;;3.30;99.90;;;;;;5074122;28;20626;-87
2022/01/26 08:18:55;;;;;;;100.25;55.08;;;3.30;99.90;;;;;;5074301;28;20051;-88
2022/01/26 08:21:20;;;;;;;104.10;52.78;;;3.30;99.90;;;;;;5072995;28;21465;-84
2022/01/26 08:23:48;;;;;;;87.78;51.85;;;3.40;99.90;;;;;;5103534;27;20039;-85
2022/01/26 08:26:14;;;;;;;91.50;54.08;;;3.40;99.90;;;;;;5102867;27;20040;-83
2022/01/26 08:28:44;;;;;;;99.47;49.45;;;3.40;99.90;;;;;;5092203;28;20052;-83
2022/01/26 08:31:12;;;;;;;;;;;3.40;99.90;;;;;;5095684;28;20040;-85
2022/01/26 08:33:38;;;;;;;91.90;52.53;;;3.40;99.90;;;;;;5100878;28;20003;-81
2022/01/26 08:36:04;;;;;;;94.85;50.08;;;3.40;99.90;;;;;;5071113;28;20122;-80
2022/01/26 08:38:29;;;;;;;99.72;50.55;;;3.50;99.90;;;;;;5072196;28;20067;-81
2022/01/26 08:40:55;;;;;;;82.00;48.33;;;3.40;99.90;;;;;;5093765;28;20050;-80
2022/01/26 08:43:21;;;;;;;88.05;45.92;;;3.50;99.90;;;;;;5091741;27;20055;-89
2022/01/26 08:45:47;;;;;;;90.57;50.38;;;3.50;99.90;;;;;;5075444;28;20127;-82
2022/01/26 08:48:13;;;;;;;82.20;45.42;;;3.50;99.90;;;;;;5102150;28;20062;-75
2022/01/26 08:50:39;;;;;;;82.75;48.55;;;3.50;99.90;;;;;;5095206;27;20032;-82
2022/01/26 08:53:05;;;;;;;81.22;44.47;;;3.50;99.90;;;;;;5105926;28;20105;-85
2022/01/26 08:55:31;;;;;;;80.40;41.30;;;3.60;99.90;;;;;;5081814;28;20495;-85
2022/01/26 08:57:57;;;;;;;73.13;43.95;;;3.60;99.90;;;;;;5090522;28;20066;-82
2022/01/26 09:00:23;;;;;;;77.25;46.72;;;3.60;99.90;;;;;;5090189;28;20032;-83
2022/01/26 09:02:51;;;;;;;78.47;46.28;;;3.60;99.90;;;;;;5076757;28;20040;-84
2022/01/26 09:05:16;;;;;;;85.15;46.97;;;3.60;99.90;;;;;;5099226;28;20481;-84
2022/01/26 09:07:44;;;;;;;76.85;46.15;;;3.60;99.90;;;;;;5100801;28;20040;-82
2022/01/26 09:10:10;;;;;;;84.13;47.28;;;3.60;99.90;;;;;;5099868;28;20082;-82
2022/01/26 09:12:40;;;;;;;82.00;45.10;;;3.60;99.90;;;;;;5109537;28;20403;-82
2022/01/26 09:15:06;;;;;;;75.55;44.50;;;3.60;99.90;;;;;;5091336;28;20108;-82
2022/01/26 09:17:35;;;;;;;81.15;47.88;;;3.70;99.90;;;;;;5103629;28;20565;-82
2022/01/26 09:20:05;;;;;;;80.95;46.03;;;3.70;99.90;;;;;;5090970;28;20040;-82
2022/01/26 09:22:31;;;;;;;74.40;42.78;;;3.70;99.90;;;;;;5095451;28;20050;-82
2022/01/26 09:24:57;;;;;;;78.82;45.42;;;3.70;99.90;;;;;;5092192;28;20043;-83
2022/01/26 09:27:23;;;;;;;81.68;46.83;;;3.80;99.90;;;;;;5092070;28;20054;-81
2022/01/26 09:29:49;;;;;;;82.93;45.20;;;3.70;99.90;;;;;;5092018;28;20100;-82
2022/01/26 09:32:15;;;;;;;73.57;45.72;;;3.80;99.90;;;;;;5083947;28;20040;-82
2022/01/26 09:34:42;;;;;;;84.45;48.58;;;3.80;99.90;;;;;;5106515;28;20122;-81
2022/01/26 09:37:16;;;;;;;87.53;51.25;;;3.80;99.90;;;;;;5061269;28;20052;-81
2022/01/26 09:39:44;;;;;;;82.97;47.50;;;3.80;99.90;;;;;;5094315;28;20093;-81
2022/01/26 09:42:10;;;;;;;81.70;48.05;;;3.90;99.90;;;;;;5077627;28;20040;-82
2022/01/26 09:44:37;;;;;;;80.95;50.63;;;3.90;99.90;;;;;;5094638;28;20047;-82
2022/01/26 09:47:04;;;;;;;86.50;49.67;;;3.90;99.90;;;;;;5079773;28;20535;-82
2022/01/26 09:49:34;;;;;;;89.28;50.38;;;3.90;99.90;;;;;;5100186;28;20122;-84
2022/01/26 09:52:02;;;;;;;91.38;50.35;;;3.90;99.90;;;;;;5103645;28;20134;-83
2022/01/26 09:54:30;;;;;;;90.15;51.17;;;3.90;99.90;;;;;;5112716;28;20047;-83
2022/01/26 09:57:04;;;;;;;93.25;48.65;;;3.90;99.90;;;;;;5111248;28;20039;-82
2022/01/26 09:59:31;;;;;;;88.50;48.42;;;3.90;99.90;;;;;;5094987;28;20074;-82
2022/01/26 10:01:58;;;;;;;88.30;49.65;;;4.00;99.90;;;;;;5103301;28;20065;-83
2022/01/26 10:04:26;;;;;;;91.05;51.78;;;4.00;99.90;;;;;;5092083;28;20040;-84
2022/01/26 10:10:33;;;;;;;81.78;50.13;;;4.00;99.90;;;;;;5106035;28;20040;-81
2022/01/26 10:15:54;;;;;;;89.40;45.42;;;4.00;99.90;;;;;;5074760;28;20087;-82
2022/01/26 10:18:21;;;;;;;81.25;42.90;;;4.10;99.90;;;;;;5074603;28;20040;-81
2022/01/26 10:20:52;;;;;;;84.10;48.15;;;4.10;99.90;;;;;;5091026;28;20044;-82
2022/01/26 10:23:24;;;;;;;90.88;47.80;;;4.10;99.90;;;;;;5094297;28;20462;-82
2022/01/26 10:26:14;;;;;;;91.00;49.08;;;4.20;99.90;;;;;;5110768;27;20048;-82
2022/01/26 10:28:43;;;;;;;80.28;42.20;;;4.20;99.90;;;;;;5074142;28;20076;-82
2022/01/26 10:31:24;;;;;;;74.85;40.85;;;4.10;99.90;;;;;;5073272;28;20075;-83
2022/01/26 10:34:00;;;;;;;83.50;42.72;;;4.10;99.90;;;;;;5090577;28;20036;-74
2022/01/26 10:36:37;;;;;;;87.20;46.63;;;4.10;99.90;;;;;;5091681;28;20123;-80
2022/01/26 10:39:15;;;;;;;70.05;42.50;;;4.20;99.90;;;;;;5091483;28;20132;-81
2022/01/26 10:41:43;;;;;;;75.93;40.55;;;4.20;99.90;;;;;;5073748;28;20548;-81
2022/01/26 10:44:09;;;;;;;75.55;40.05;;;4.20;99.90;;;;;;5093061;28;20436;-81
2022/01/26 10:46:41;;;;;;;75.97;39.67;;;4.20;99.90;;;;;;5092337;28;20056;-81
2022/01/26 10:57:01;;;;;;;68.82;38.83;;;4.30;99.90;;;;;;5072117;28;20405;-82
2022/01/26 10:59:26;;;;;;;72.70;39.53;;;4.30;99.90;;;;;;5090927;28;20123;-82
2022/01/26 11:01:53;;;;;;;74.47;39.08;;;4.30;99.90;;;;;;5106976;28;20147;-82
2022/01/26 11:04:19;;;;;;;77.68;39.38;;;4.30;99.90;;;;;;5076837;28;20040;-79
2022/01/26 11:06:53;;;;;;;65.00;41.47;;;4.30;99.90;;;;;;5093258;28;20040;-81
2022/01/26 11:09:23;;;;;;;73.13;41.40;;;4.30;99.90;;;;;;5095795;28;20040;-82
2022/01/26 11:12:02;;;;;;;85.65;44.10;;;4.30;99.90;;;;;;5073019;28;20051;-81
2022/01/26 11:14:48;;;;;;;83.63;43.75;;;4.20;99.90;;;;;;5091861;28;20077;-81
2022/01/26 11:17:29;;;;;;;80.05;45.95;;;4.20;99.90;;;;;;5100059;28;20027;-82
2022/01/26 11:19:57;;;;;;;85.28;40.45;;;4.20;99.90;;;;;;5105311;28;20053;-82
2022/01/26 11:22:30;;;;;;;84.25;43.58;;;4.00;99.90;;;;;;5099217;27;20123;-81
2022/01/26 11:25:08;;;;;;;89.00;42.13;;;4.00;99.90;;;;;;5081282;28;20096;-83
2022/01/26 11:27:36;;;;;;;80.57;43.17;;;4.10;99.90;;;;;;5084705;28;20538;-78
2022/01/26 11:30:18;;;;;;;77.00;40.42;;;4.10;99.90;;;;;;5084686;28;20078;-82
2022/01/26 11:32:51;;;;;;;85.43;44.92;;;4.10;99.90;;;;;;5110597;28;20122;-82
2022/01/26 11:35:17;;;;;;;81.30;41.45;;;4.10;99.90;;;;;;5108301;28;20872;-86
2022/01/26 11:37:48;;;;;;;79.78;45.30;;;4.20;99.90;;;;;;5115480;28;20078;-80
2022/01/26 11:46:08;;;;;;;78.13;44.40;;;4.30;99.90;;;;;;5124615;28;20536;-85
2022/01/26 11:48:35;;;;;;;74.18;39.83;;;4.30;99.90;;;;;;5083538;28;20048;-85
2022/01/26 11:51:03;;;;;;;87.82;40.63;;;4.30;99.90;;;;;;5091460;28;20042;-86
2022/01/26 11:53:29;;;;;;;80.28;41.90;;;4.30;99.90;;;;;;5074434;28;20067;-81
2022/01/26 11:56:05;;;;;;;82.70;39.25;;;4.30;99.90;;;;;;5085351;28;20048;-84
2022/01/26 11:58:34;;;;;;;76.40;40.60;;;4.20;99.90;;;;;;5091285;28;20038;-86
2022/01/26 12:01:28;;;;;;;119.22;45.25;;;4.30;99.90;;;;;;5089915;28;20517;-83
2022/01/26 12:04:18;;;;;;;83.82;39.60;;;4.30;99.90;;;;;;5089108;28;20075;-84
2022/01/26 12:06:50;;;;;;;;;;;4.30;99.90;;;;;;5088202;28;20036;-84
2022/01/26 12:09:17;;;;;;;85.70;41.28;;;4.30;99.90;;;;;;5093249;27;20298;-84
2022/01/26 12:11:50;;;;;;;76.65;41.67;;;4.40;99.90;;;;;;5089998;28;20052;-82
2022/01/26 12:14:20;;;;;;;64.53;39.47;;;4.40;99.90;;;;;;5073044;28;20044;-84
2022/01/26 12:16:49;;;;;;;65.53;39.60;;;4.40;99.90;;;;;;5071831;28;20081;-85
2022/01/26 12:36:19;;;;;;;59.28;33.38;;;4.70;99.90;;;;;;5109717;28;20086;-83
2022/01/26 12:38:49;;;;;;;71.25;36.65;;;4.70;99.90;;;;;;5109129;28;20402;-80
2022/01/26 12:41:25;;;;;;;59.72;33.97;;;4.80;99.90;;;;;;5109065;28;20062;-81
2022/01/26 12:43:57;;;;;;;69.28;35.35;;;4.70;99.90;;;;;;5100508;28;20051;-82
2022/01/26 12:46:28;;;;;;;70.00;37.03;;;4.70;99.90;;;;;;5105224;28;20052;-81
2022/01/26 12:48:56;;;;;;;67.20;37.15;;;4.80;99.90;;;;;;5093683;28;20122;-82
2022/01/26 12:51:22;;;;;;;69.07;35.60;;;4.70;99.90;;;;;;5108648;28;20044;-83
2022/01/26 12:53:57;;;;;;;71.55;34.95;;;4.70;99.90;;;;;;5109538;28;20063;-82
2022/01/26 12:56:29;;;;;;;62.83;36.40;;;4.80;99.90;;;;;;5108111;28;20131;-83
2022/01/26 12:59:06;;;;;;;76.90;39.58;;;4.90;99.90;;;;;;5109242;28;20541;-82
2022/01/26 13:01:33;;;;;;;69.72;35.53;;;4.90;99.90;;;;;;5109687;28;20055;-82
2022/01/26 13:04:01;;;;;;;68.82;37.33;;;5.00;99.90;;;;;;5054661;28;20151;-84
2022/01/26 13:06:28;;;;;;;72.85;38.13;;;4.90;99.90;;;;;;5071178;28;20066;-81
2022/01/26 13:08:58;;;;;;;64.47;36.08;;;4.90;99.90;;;;;;5107853;28;20070;-84
2022/01/26 13:11:28;;;;;;;82.15;35.75;;;4.90;99.90;;;;;;5101040;28;20087;-78
2022/01/26 13:14:13;;;;;;;61.95;32.80;;;5.00;99.90;;;;;;5108807;28;20044;-81
2022/01/26 13:16:43;;;;;;;62.97;35.28;;;5.00;99.90;;;;;;5099341;28;20043;-80
2022/01/26 13:27:54;;;;;;;67.25;37.25;;;5.00;99.90;;;;;;5108344;28;20077;-81
2022/01/26 13:32:36;;;;;;;72.97;32.78;;;5.00;99.90;;;;;;5089363;28;20101;-81
2022/01/26 13:37:46;;;;;;;58.45;33.28;;;5.20;99.90;;;;;;5078630;28;20080;-80
2022/01/26 13:43:12;;;;;;;58.15;32.13;;;5.10;99.90;;;;;;5112431;28;20044;-81
2022/01/26 13:51:03;;;;;;;66.68;33.63;;;5.10;99.90;;;;;;5093773;28;20387;-80
2022/01/26 13:53:46;;;;;;;61.30;33.25;;;5.10;99.90;;;;;;5082211;28;20051;-82
2022/01/26 13:56:18;;;;;;;55.80;31.67;;;5.10;99.90;;;;;;5089378;28;20085;-82
2022/01/26 13:59:12;;;;;;;73.38;33.45;;;5.00;99.90;;;;;;5088854;28;20054;-82
2022/01/26 14:01:32;;;;;;;53.03;30.63;;;5.10;99.90;;;;;;5096531;28;20738;-83
2022/01/26 14:04:03;;;;;;;69.72;34.55;;;5.10;99.90;;;;;;5089564;28;20122;-83
2022/01/26 14:06:28;;;;;;;60.78;28.30;;;5.10;99.90;;;;;;5099584;28;20071;-82
2022/01/26 14:08:54;;;;;;;55.22;32.05;;;5.10;99.90;;;;;;5070401;28;20128;-81
2022/01/26 14:11:20;;;;;;;64.53;36.85;;;5.10;99.90;;;;;;5074717;28;20036;-81
2022/01/26 14:13:46;;;;;;;58.05;32.03;;;5.00;99.90;;;;;;5070616;28;20048;-81
2022/01/26 14:16:15;;;;;;;57.33;31.58;;;5.10;99.90;;;;;;5094375;28;20044;-81
2022/01/26 14:18:49;;;;;;;67.55;36.92;;;5.20;99.90;;;;;;5097106;28;20118;-80
2022/01/26 14:26:19;;;;;;;53.83;32.55;;;5.20;99.90;;;;;;5088686;28;20052;-82
2022/01/26 14:28:44;;;;;;;44.58;30.05;;;5.20;99.90;;;;;;5070508;28;20044;-81
2022/01/26 14:36:52;;;;;;;56.72;32.53;;;5.20;99.90;;;;;;5090677;28;20051;-79
2022/01/26 14:53:33;;;;;;;63.05;33.22;;;5.20;99.90;;;;;;5096041;28;20036;-84
2022/01/26 15:21:20;;;;;;;61.22;33.65;;;5.20;99.90;;;;;;5096322;28;20047;-80
2022/01/26 15:31:44;;;;;;;58.53;31.95;;;5.20;99.90;;;;;;5076295;28;20044;-81
2022/01/26 15:44:49;;;;;;;62.33;33.80;;;5.30;99.90;;;;;;5107575;28;20047;-81
2022/01/26 15:50:20;;;;;;;64.53;34.42;;;5.30;99.90;;;;;;5089709;28;20489;-79
2022/01/26 15:52:54;;;;;;;59.58;30.05;;;5.30;99.90;;;;;;5093042;28;20461;-81
2022/01/26 15:58:29;;;;;;;66.70;33.05;;;5.30;99.90;;;;;;5089241;28;20044;-77
2022/01/26 16:52:45;;;;;;;41.90;26.50;;;5.50;99.90;;;;;;5082873;28;20040;-82
2022/01/26 17:11:12;;;;;;;46.60;26.67;;;5.60;99.90;;;;;;5108095;28;20122;-78
2022/01/26 17:12:03;;;;;;;47.17;22.83;;;5.60;99.90;;;;;;5094154;28;20051;-77
2022/01/26 17:48:16;;;;;;;42.08;23.70;;;5.60;99.90;;;;;;5091860;28;20123;-78
2022/01/26 18:38:56;;;;;;;43.50;24.25;;;5.70;99.90;;;;;;5089649;28;20052;-78
2022/01/26 18:49:18;;;;;;;41.70;23.67;;;5.80;99.90;;;;;;5075682;28;20060;-82
2022/01/26 18:51:52;;;;;;;42.50;24.65;;;5.80;99.90;;;;;;5082332;28;20044;-82
2022/01/26 18:54:18;;;;;;;47.65;25.23;;;5.90;99.90;;;;;;5092181;28;20040;-83
2022/01/26 18:56:46;;;;;;;40.92;23.15;;;5.80;99.90;;;;;;5073993;28;20044;-80
2022/01/26 18:59:13;;;;;;;48.40;22.08;;;5.80;99.90;;;;;;5092168;28;20048;-80
2022/01/26 19:01:39;;;;;;;34.97;21.70;;;5.80;99.90;;;;;;5074109;28;20089;-81
2022/01/26 19:04:05;;;;;;;39.83;23.02;;;5.80;99.90;;;;;;5091871;28;20046;-81
2022/01/26 19:06:30;;;;;;;48.55;23.85;;;5.90;99.90;;;;;;5082681;28;20040;-84
2022/01/26 19:08:58;;;;;;;40.88;23.25;;;5.80;99.90;;;;;;5102495;28;20069;-79
2022/01/26 19:11:30;;;;;;;44.35;23.23;;;5.90;99.90;;;;;;5091539;28;20521;-82
2022/01/26 19:13:56;;;;;;;40.83;22.63;;;5.90;99.90;;;;;;5091912;28;20105;-83